sensor_id;sensor_type;location;lat;lon;timestamp;pressure;altitude;pressure_sealevel;temperature;humidity
48630;BME280;34426;52.180;4.462;2023-03-30T00:01:29;100579.25;;;14.19;65.18
48630;BME280;34426;52.180;4.462;2023-03-30T00:04:03;100559.19;;;14.02;65.77
48630;BME280;34426;52.180;4.462;2023-03-30T00:06:29;100563.22;;;13.91;67.45
48630;BME280;34426;52.180;4.462;2023-03-30T00:08:57;100538.56;;;13.59;70.55
48630;BME280;34426;52.180;4.462;2023-03-30T00:11:41;100519.72;;;13.30;70.94
48630;BME280;34426;52.180;4.462;2023-03-30T00:14:06;100527.13;;;13.16;70.96
48630;BME280;34426;52.180;4.462;2023-03-30T00:16:32;100519.28;;;13.13;71.55
48630;BME280;34426;52.180;4.462;2023-03-30T00:18:57;100519.84;;;13.10;71.36
48630;BME280;34426;52.180;4.462;2023-03-30T00:21:23;100527.69;;;13.13;70.62
48630;BME280;34426;52.180;4.462;2023-03-30T00:23:49;100537.53;;;13.11;71.36
48630;BME280;34426;52.180;4.462;2023-03-30T00:26:21;100538.94;;;13.13;71.01
48630;BME280;34426;52.180;4.462;2023-03-30T00:28:51;100523.78;;;13.09;71.29
48630;BME280;34426;52.180;4.462;2023-03-30T00:31:29;100526.59;;;13.09;71.25
48630;BME280;34426;52.180;4.462;2023-03-30T00:34:00;100529.94;;;13.16;70.79
48630;BME280;34426;52.180;4.462;2023-03-30T00:36:34;100530.47;;;13.23;71.03
48630;BME280;34426;52.180;4.462;2023-03-30T00:38:59;100525.63;;;13.29;70.80
48630;BME280;34426;52.180;4.462;2023-03-30T00:41:26;100514.66;;;13.32;71.61
48630;BME280;34426;52.180;4.462;2023-03-30T00:43:57;100523.59;;;13.40;71.91
48630;BME280;34426;52.180;4.462;2023-03-30T00:46:25;100512.34;;;13.40;72.20
48630;BME280;34426;52.180;4.462;2023-03-30T00:48:51;100505.63;;;13.36;72.50
48630;BME280;34426;52.180;4.462;2023-03-30T00:51:18;100500.91;;;13.31;72.58
48630;BME280;34426;52.180;4.462;2023-03-30T00:53:46;100509.66;;;13.24;73.63
48630;BME280;34426;52.180;4.462;2023-03-30T00:56:18;100501.53;;;13.23;74.04
48630;BME280;34426;52.180;4.462;2023-03-30T01:01:42;100513.09;;;13.16;74.55
48630;BME280;34426;52.180;4.462;2023-03-30T01:04:16;100507.19;;;13.13;74.94
48630;BME280;34426;52.180;4.462;2023-03-30T01:06:45;100498.53;;;13.09;74.29
48630;BME280;34426;52.180;4.462;2023-03-30T01:09:11;100509.78;;;13.04;73.84
48630;BME280;34426;52.180;4.462;2023-03-30T01:11:39;100492.69;;;13.00;73.76
48630;BME280;34426;52.180;4.462;2023-03-30T01:14:13;100498.09;;;12.97;73.48
48630;BME280;34426;52.180;4.462;2023-03-30T01:16:41;100505.88;;;13.00;73.14
48630;BME280;34426;52.180;4.462;2023-03-30T01:19:38;100487.41;;;12.99;73.29
48630;BME280;34426;52.180;4.462;2023-03-30T01:25:35;100495.28;;;12.97;73.92
48630;BME280;34426;52.180;4.462;2023-03-30T01:28:45;100489.66;;;12.97;74.71
48630;BME280;34426;52.180;4.462;2023-03-30T01:34:41;100468.59;;;12.99;74.97
48630;BME280;34426;52.180;4.462;2023-03-30T01:40:28;100463.19;;;13.03;75.17
48630;BME280;34426;52.180;4.462;2023-03-30T01:43:03;100467.13;;;13.02;75.36
48630;BME280;34426;52.180;4.462;2023-03-30T01:45:42;100458.16;;;13.00;75.18
48630;BME280;34426;52.180;4.462;2023-03-30T01:48:15;100454.84;;;12.98;75.53
48630;BME280;34426;52.180;4.462;2023-03-30T01:50:47;100450.66;;;12.95;75.98
48630;BME280;34426;52.180;4.462;2023-03-30T01:53:15;100451.53;;;12.91;75.74
48630;BME280;34426;52.180;4.462;2023-03-30T01:55:46;100449.59;;;12.86;75.91
48630;BME280;34426;52.180;4.462;2023-03-30T01:58:29;100475.72;;;12.82;76.36
48630;BME280;34426;52.180;4.462;2023-03-30T02:00:59;100477.38;;;12.88;76.42
48630;BME280;34426;52.180;4.462;2023-03-30T02:03:40;100487.19;;;12.90;76.48
48630;BME280;34426;52.180;4.462;2023-03-30T02:06:23;100474.25;;;12.94;76.37
48630;BME280;34426;52.180;4.462;2023-03-30T02:08:51;100466.06;;;12.98;76.34
48630;BME280;34426;52.180;4.462;2023-03-30T02:11:20;100477.81;;;13.00;76.22
48630;BME280;34426;52.180;4.462;2023-03-30T02:13:48;100477.81;;;13.00;76.36
48630;BME280;34426;52.180;4.462;2023-03-30T02:16:21;100472.75;;;13.02;76.70
48630;BME280;34426;52.180;4.462;2023-03-30T02:18:52;100471.91;;;13.02;77.20
48630;BME280;34426;52.180;4.462;2023-03-30T02:21:32;100477.31;;;12.98;77.16
48630;BME280;34426;52.180;4.462;2023-03-30T02:23:59;100468.91;;;12.93;77.25
48630;BME280;34426;52.180;4.462;2023-03-30T02:26:28;100465.84;;;12.89;77.11
48630;BME280;34426;52.180;4.462;2023-03-30T02:28:54;100470.38;;;12.85;77.58
48630;BME280;34426;52.180;4.462;2023-03-30T02:31:23;100462.53;;;12.82;78.19
48630;BME280;34426;52.180;4.462;2023-03-30T02:34:12;100460.59;;;12.78;78.40
48630;BME280;34426;52.180;4.462;2023-03-30T02:36:56;100450.50;;;12.77;78.87
48630;BME280;34426;52.180;4.462;2023-03-30T02:39:35;100445.78;;;12.72;79.22
48630;BME280;34426;52.180;4.462;2023-03-30T02:42:30;100456.16;;;12.72;79.23
48630;BME280;34426;52.180;4.462;2023-03-30T02:45:07;100448.59;;;12.72;79.16
48630;BME280;34426;52.180;4.462;2023-03-30T02:47:49;100446.31;;;12.74;79.30
48630;BME280;34426;52.180;4.462;2023-03-30T02:50:24;100426.94;;;12.78;78.85
48630;BME280;34426;52.180;4.462;2023-03-30T02:53:02;100428.03;;;12.82;78.64
48630;BME280;34426;52.180;4.462;2023-03-30T02:55:33;100449.88;;;12.85;78.49
48630;BME280;34426;52.180;4.462;2023-03-30T02:58:14;100433.59;;;12.87;77.87
48630;BME280;34426;52.180;4.462;2023-03-30T03:00:51;100441.44;;;12.90;77.86
48630;BME280;34426;52.180;4.462;2023-03-30T03:03:23;100437.50;;;12.91;77.37
48630;BME280;34426;52.180;4.462;2023-03-30T03:05:51;100440.00;;;12.92;77.24
48630;BME280;34426;52.180;4.462;2023-03-30T03:08:24;100445.88;;;12.96;77.49
48630;BME280;34426;52.180;4.462;2023-03-30T03:10:55;100439.13;;;12.97;77.25
48630;BME280;34426;52.180;4.462;2023-03-30T03:13:35;100441.31;;;13.00;76.89
48630;BME280;34426;52.180;4.462;2023-03-30T03:16:10;100440.50;;;12.99;77.03
48630;BME280;34426;52.180;4.462;2023-03-30T03:18:37;100444.66;;;13.02;77.19
48630;BME280;34426;52.180;4.462;2023-03-30T03:21:06;100436.78;;;13.04;76.76
48630;BME280;34426;52.180;4.462;2023-03-30T03:23:32;100433.69;;;13.06;77.15
48630;BME280;34426;52.180;4.462;2023-03-30T03:26:07;100435.13;;;13.03;76.92
48630;BME280;34426;52.180;4.462;2023-03-30T03:28:34;100445.81;;;13.01;77.64
48630;BME280;34426;52.180;4.462;2023-03-30T03:31:00;100431.25;;;12.99;77.82
48630;BME280;34426;52.180;4.462;2023-03-30T03:33:32;100429.88;;;12.96;77.47
48630;BME280;34426;52.180;4.462;2023-03-30T03:36:10;100435.22;;;12.93;77.95
48630;BME280;34426;52.180;4.462;2023-03-30T03:38:49;100433.56;;;12.92;77.69
48630;BME280;34426;52.180;4.462;2023-03-30T03:41:15;100435.56;;;12.86;77.90
48630;BME280;34426;52.180;4.462;2023-03-30T03:43:44;100420.72;;;12.81;77.97
48630;BME280;34426;52.180;4.462;2023-03-30T03:46:13;100409.00;;;12.74;77.78
48630;BME280;34426;52.180;4.462;2023-03-30T03:51:14;100411.59;;;12.65;77.96
48630;BME280;34426;52.180;4.462;2023-03-30T03:53:45;100404.06;;;12.60;78.15
48630;BME280;34426;52.180;4.462;2023-03-30T03:56:11;100417.53;;;12.58;78.51
48630;BME280;34426;52.180;4.462;2023-03-30T03:58:36;100413.38;;;12.56;78.16
48630;BME280;34426;52.180;4.462;2023-03-30T04:01:09;100400.50;;;12.50;78.21
48630;BME280;34426;52.180;4.462;2023-03-30T04:03:35;100410.63;;;12.46;78.61
48630;BME280;34426;52.180;4.462;2023-03-30T04:06:07;100405.91;;;12.41;78.61
48630;BME280;34426;52.180;4.462;2023-03-30T04:08:32;100404.81;;;12.37;79.05
48630;BME280;34426;52.180;4.462;2023-03-30T04:11:27;100408.47;;;12.32;79.13
48630;BME280;34426;52.180;4.462;2023-03-30T04:14:21;100400.38;;;12.26;79.67
48630;BME280;34426;52.180;4.462;2023-03-30T04:17:04;100411.88;;;12.24;79.93
48630;BME280;34426;52.180;4.462;2023-03-30T04:19:30;100399.56;;;12.20;79.87
48630;BME280;34426;52.180;4.462;2023-03-30T04:22:04;100408.28;;;12.19;80.21
48630;BME280;34426;52.180;4.462;2023-03-30T04:24:30;100399.31;;;12.17;80.23
48630;BME280;34426;52.180;4.462;2023-03-30T04:26:58;100405.50;;;12.14;80.41
48630;BME280;34426;52.180;4.462;2023-03-30T04:29:31;100393.22;;;12.10;80.56
48630;BME280;34426;52.180;4.462;2023-03-30T04:31:58;100395.47;;;12.08;80.97
48630;BME280;34426;52.180;4.462;2023-03-30T04:34:26;100407.56;;;11.98;81.39
48630;BME280;34426;52.180;4.462;2023-03-30T04:36:54;100395.84;;;11.91;81.98
48630;BME280;34426;52.180;4.462;2023-03-30T04:39:25;100388.03;;;11.83;82.32
48630;BME280;34426;52.180;4.462;2023-03-30T04:42:00;100386.63;;;11.75;82.62
48630;BME280;34426;52.180;4.462;2023-03-30T04:44:31;100378.84;;;11.67;82.81
48630;BME280;34426;52.180;4.462;2023-03-30T04:46:58;100393.41;;;11.64;83.20
48630;BME280;34426;52.180;4.462;2023-03-30T04:49:27;100394.56;;;11.58;83.17
48630;BME280;34426;52.180;4.462;2023-03-30T04:51:52;100388.41;;;11.56;83.22
48630;BME280;34426;52.180;4.462;2023-03-30T04:54:18;100388.13;;;11.52;83.25
48630;BME280;34426;52.180;4.462;2023-03-30T04:56:44;100388.44;;;11.51;82.86
48630;BME280;34426;52.180;4.462;2023-03-30T04:59:10;100390.66;;;11.49;82.97
48630;BME280;34426;52.180;4.462;2023-03-30T05:01:35;100391.53;;;11.44;82.67
48630;BME280;34426;52.180;4.462;2023-03-30T05:04:22;100394.59;;;11.43;82.57
48630;BME280;34426;52.180;4.462;2023-03-30T05:07:00;100391.28;;;11.36;83.00
48630;BME280;34426;52.180;4.462;2023-03-30T05:09:36;100390.44;;;11.30;82.81
48630;BME280;34426;52.180;4.462;2023-03-30T05:12:04;100383.44;;;11.27;82.86
48630;BME280;34426;52.180;4.462;2023-03-30T05:14:30;100383.75;;;11.26;82.82
48630;BME280;34426;52.180;4.462;2023-03-30T05:16:56;100392.44;;;11.24;82.93
48630;BME280;34426;52.180;4.462;2023-03-30T05:19:28;100394.97;;;11.21;82.52
48630;BME280;34426;52.180;4.462;2023-03-30T05:21:53;100398.63;;;11.16;82.51
48630;BME280;34426;52.180;4.462;2023-03-30T05:24:21;100389.94;;;11.18;82.49
48630;BME280;34426;52.180;4.462;2023-03-30T05:26:52;100394.13;;;11.15;82.49
48630;BME280;34426;52.180;4.462;2023-03-30T05:29:27;100393.88;;;11.12;83.08
48630;BME280;34426;52.180;4.462;2023-03-30T05:31:59;100399.19;;;11.08;83.15
48630;BME280;34426;52.180;4.462;2023-03-30T05:34:35;100391.06;;;11.07;83.21
48630;BME280;34426;52.180;4.462;2023-03-30T05:37:03;100402.28;;;11.07;83.15
48630;BME280;34426;52.180;4.462;2023-03-30T05:39:35;100427.19;;;11.08;83.28
48630;BME280;34426;52.180;4.462;2023-03-30T05:42:04;100415.41;;;11.11;82.99
48630;BME280;34426;52.180;4.462;2023-03-30T05:47:27;100417.94;;;11.18;82.62
48630;BME280;34426;52.180;4.462;2023-03-30T05:49:58;100410.38;;;11.18;82.58
48630;BME280;34426;52.180;4.462;2023-03-30T05:52:39;100426.59;;;11.21;82.64
48630;BME280;34426;52.180;4.462;2023-03-30T05:55:08;100418.16;;;11.26;82.86
48630;BME280;34426;52.180;4.462;2023-03-30T05:57:36;100423.75;;;11.26;82.53
48630;BME280;34426;52.180;4.462;2023-03-30T06:00:16;100423.75;;;11.26;82.74
48630;BME280;34426;52.180;4.462;2023-03-30T06:02:49;100443.38;;;11.26;82.47
48630;BME280;34426;52.180;4.462;2023-03-30T06:05:17;100429.38;;;11.26;82.39
48630;BME280;34426;52.180;4.462;2023-03-30T06:07:51;100438.31;;;11.28;82.67
48630;BME280;34426;52.180;4.462;2023-03-30T06:10:20;100449.53;;;11.28;82.53
48630;BME280;34426;52.180;4.462;2023-03-30T06:12:57;100437.75;;;11.26;82.67
48630;BME280;34426;52.180;4.462;2023-03-30T06:15:31;100441.72;;;11.25;82.79
48630;BME280;34426;52.180;4.462;2023-03-30T06:18:03;100449.00;;;11.21;82.66
48630;BME280;34426;52.180;4.462;2023-03-30T06:20:39;100455.16;;;11.23;82.61
48630;BME280;34426;52.180;4.462;2023-03-30T06:23:05;100455.13;;;11.28;82.64
48630;BME280;34426;52.180;4.462;2023-03-30T06:25:31;100459.03;;;11.32;82.31
48630;BME280;34426;52.180;4.462;2023-03-30T06:27:57;100450.06;;;11.36;82.09
48630;BME280;34426;52.180;4.462;2023-03-30T06:30:43;100458.47;;;11.36;82.23
48630;BME280;34426;52.180;4.462;2023-03-30T06:33:18;100466.88;;;11.36;82.15
48630;BME280;34426;52.180;4.462;2023-03-30T06:35:46;100469.13;;;11.33;82.25
48630;BME280;34426;52.180;4.462;2023-03-30T06:38:20;100465.19;;;11.34;81.97
48630;BME280;34426;52.180;4.462;2023-03-30T06:40:48;100478.06;;;11.36;81.74
48630;BME280;34426;52.180;4.462;2023-03-30T06:43:18;100468.00;;;11.34;81.55
48630;BME280;34426;52.180;4.462;2023-03-30T06:45:58;100468.56;;;11.31;81.41
48630;BME280;34426;52.180;4.462;2023-03-30T06:48:41;100461.88;;;11.22;81.80
48630;BME280;34426;52.180;4.462;2023-03-30T06:51:08;100482.59;;;11.16;82.07
48630;BME280;34426;52.180;4.462;2023-03-30T06:53:34;100489.31;;;11.15;82.23
48630;BME280;34426;52.180;4.462;2023-03-30T06:56:03;100463.28;;;11.15;82.33
48630;BME280;34426;52.180;4.462;2023-03-30T06:58:34;100483.72;;;11.15;82.63
48630;BME280;34426;52.180;4.462;2023-03-30T07:01:19;100478.13;;;11.20;82.17
48630;BME280;34426;52.180;4.462;2023-03-30T07:03:56;100485.34;;;11.26;82.18
48630;BME280;34426;52.180;4.462;2023-03-30T07:06:23;100488.16;;;11.31;81.08
48630;BME280;34426;52.180;4.462;2023-03-30T07:08:51;100480.31;;;11.44;80.18
48630;BME280;34426;52.180;4.462;2023-03-30T07:11:21;100480.28;;;11.54;79.32
48630;BME280;34426;52.180;4.462;2023-03-30T07:13:49;100486.16;;;11.62;78.66
48630;BME280;34426;52.180;4.462;2023-03-30T07:16:15;100490.31;;;11.70;78.08
48630;BME280;34426;52.180;4.462;2023-03-30T07:19:05;100490.88;;;11.77;77.96
48630;BME280;34426;52.180;4.462;2023-03-30T07:21:35;100489.47;;;11.80;77.93
48630;BME280;34426;52.180;4.462;2023-03-30T07:24:08;100506.28;;;11.80;77.59
48630;BME280;34426;52.180;4.462;2023-03-30T07:26:37;100504.03;;;11.82;77.97
48630;BME280;34426;52.180;4.462;2023-03-30T07:29:08;100515.25;;;11.77;78.54
48630;BME280;34426;52.180;4.462;2023-03-30T07:31:34;100505.72;;;11.78;78.87
48630;BME280;34426;52.180;4.462;2023-03-30T07:34:00;100517.19;;;11.76;78.94
48630;BME280;34426;52.180;4.462;2023-03-30T07:36:25;100504.31;;;11.85;78.45
48630;BME280;34426;52.180;4.462;2023-03-30T07:38:55;100517.19;;;11.96;78.38
48630;BME280;34426;52.180;4.462;2023-03-30T07:41:21;100517.72;;;11.98;78.00
48630;BME280;34426;52.180;4.462;2023-03-30T07:43:47;100525.00;;;11.99;78.19
48630;BME280;34426;52.180;4.462;2023-03-30T07:46:15;100535.09;;;12.01;77.74
48630;BME280;34426;52.180;4.462;2023-03-30T07:48:49;100534.53;;;12.04;78.22
48630;BME280;34426;52.180;4.462;2023-03-30T07:51:17;100539.31;;;11.93;78.57
48630;BME280;34426;52.180;4.462;2023-03-30T07:53:49;100526.19;;;11.78;79.15
48630;BME280;34426;52.180;4.462;2023-03-30T07:56:20;100539.09;;;11.69;79.87
48630;BME280;34426;52.180;4.462;2023-03-30T07:58:51;100542.16;;;11.68;80.17
48630;BME280;34426;52.180;4.462;2023-03-30T08:01:18;100550.88;;;11.66;80.25
48630;BME280;34426;52.180;4.462;2023-03-30T08:03:45;100542.19;;;11.62;80.48
48630;BME280;34426;52.180;4.462;2023-03-30T08:06:24;100543.31;;;11.61;80.09
48630;BME280;34426;52.180;4.462;2023-03-30T08:08:53;100541.34;;;11.57;80.17
48630;BME280;34426;52.180;4.462;2023-03-30T08:11:23;100547.50;;;11.59;80.25
48630;BME280;34426;52.180;4.462;2023-03-30T08:13:51;100541.34;;;11.67;79.88
48630;BME280;34426;52.180;4.462;2023-03-30T08:16:26;100550.81;;;11.76;79.53
48630;BME280;34426;52.180;4.462;2023-03-30T08:18:56;100549.44;;;11.84;79.37
48630;BME280;34426;52.180;4.462;2023-03-30T08:21:25;100564.25;;;11.94;79.07
48630;BME280;34426;52.180;4.462;2023-03-30T08:23:54;100558.63;;;12.05;78.40
48630;BME280;34426;52.180;4.462;2023-03-30T08:26:26;100552.13;;;12.14;77.47
48630;BME280;34426;52.180;4.462;2023-03-30T08:28:58;100563.06;;;12.16;76.73
48630;BME280;34426;52.180;4.462;2023-03-30T08:31:30;100566.69;;;12.16;76.62
48630;BME280;34426;52.180;4.462;2023-03-30T08:34:01;100560.78;;;12.23;76.55
48630;BME280;34426;52.180;4.462;2023-03-30T08:36:26;100565.84;;;12.26;76.27
48630;BME280;34426;52.180;4.462;2023-03-30T08:38:54;100557.41;;;12.31;75.36
48630;BME280;34426;52.180;4.462;2023-03-30T08:44:42;100577.81;;;12.47;74.89
48630;BME280;34426;52.180;4.462;2023-03-30T08:47:15;100576.09;;;12.56;75.26
48630;BME280;34426;52.180;4.462;2023-03-30T08:49:57;100586.38;;;12.71;75.12
48630;BME280;34426;52.180;4.462;2023-03-30T08:52:28;100595.94;;;12.70;75.21
48630;BME280;34426;52.180;4.462;2023-03-30T08:55:02;100606.72;;;12.47;74.93
48630;BME280;34426;52.180;4.462;2023-03-30T08:57:47;100584.84;;;12.39;75.44
48630;BME280;34426;52.180;4.462;2023-03-30T09:00:22;100595.25;;;12.33;75.25
48630;BME280;34426;52.180;4.462;2023-03-30T09:02:51;100592.72;;;12.32;75.46
48630;BME280;34426;52.180;4.462;2023-03-30T09:05:23;100588.25;;;12.26;74.88
48630;BME280;34426;52.180;4.462;2023-03-30T09:08:05;100590.47;;;12.34;74.42
48630;BME280;34426;52.180;4.462;2023-03-30T09:10:36;100617.38;;;12.40;74.26
48630;BME280;34426;52.180;4.462;2023-03-30T09:13:11;100607.84;;;12.41;73.98
48630;BME280;34426;52.180;4.462;2023-03-30T09:15:42;100608.09;;;12.50;73.59
48630;BME280;34426;52.180;4.462;2023-03-30T09:18:16;100604.97;;;12.56;73.78
48630;BME280;34426;52.180;4.462;2023-03-30T09:20:47;100602.78;;;12.48;74.17
48630;BME280;34426;52.180;4.462;2023-03-30T09:23:22;100661.69;;;12.43;74.65
48630;BME280;34426;52.180;4.462;2023-03-30T09:25:54;100626.34;;;12.47;75.00
48630;BME280;34426;52.180;4.462;2023-03-30T09:28:37;100618.75;;;12.53;74.38
48630;BME280;34426;52.180;4.462;2023-03-30T09:31:12;100622.06;;;12.60;74.70
48630;BME280;34426;52.180;4.462;2023-03-30T09:33:44;100608.88;;;12.60;74.42
48630;BME280;34426;52.180;4.462;2023-03-30T09:36:14;100611.09;;;12.69;74.92
48630;BME280;34426;52.180;4.462;2023-03-30T09:38:54;100626.53;;;12.66;74.60
48630;BME280;34426;52.180;4.462;2023-03-30T09:41:50;100636.91;;;12.65;74.89
48630;BME280;34426;52.180;4.462;2023-03-30T09:44:42;100617.81;;;12.73;74.58
48630;BME280;34426;52.180;4.462;2023-03-30T09:47:25;100621.13;;;12.80;73.76
48630;BME280;34426;52.180;4.462;2023-03-30T09:49:58;100648.09;;;12.76;73.28
48630;BME280;34426;52.180;4.462;2023-03-30T09:52:26;100642.72;;;12.84;72.84
48630;BME280;34426;52.180;4.462;2023-03-30T09:54:58;100643.81;;;12.93;72.32
48630;BME280;34426;52.180;4.462;2023-03-30T09:57:31;100633.59;;;13.08;71.67
48630;BME280;34426;52.180;4.462;2023-03-30T10:00:25;100635.00;;;13.10;71.79
48630;BME280;34426;52.180;4.462;2023-03-30T10:03:12;100644.81;;;13.18;70.94
48630;BME280;34426;52.180;4.462;2023-03-30T10:05:45;100648.34;;;13.34;70.76
48630;BME280;34426;52.180;4.462;2023-03-30T10:08:30;100644.22;;;13.21;70.21
48630;BME280;34426;52.180;4.462;2023-03-30T10:10:57;100654.28;;;13.27;70.95
48630;BME280;34426;52.180;4.462;2023-03-30T10:13:35;100661.63;;;13.23;71.65
48630;BME280;34426;52.180;4.462;2023-03-30T10:16:26;100660.66;;;12.93;72.12
48630;BME280;34426;52.180;4.462;2023-03-30T10:18:53;100658.59;;;13.04;72.57
48630;BME280;34426;52.180;4.462;2023-03-30T10:21:23;100672.91;;;13.08;72.40
48630;BME280;34426;52.180;4.462;2023-03-30T10:23:59;100669.78;;;13.19;72.50
48630;BME280;34426;52.180;4.462;2023-03-30T10:26:34;100667.78;;;13.25;72.25
48630;BME280;34426;52.180;4.462;2023-03-30T10:29:01;100666.91;;;13.35;70.93
48630;BME280;34426;52.180;4.462;2023-03-30T10:31:45;100680.91;;;13.40;71.18
48630;BME280;34426;52.180;4.462;2023-03-30T10:34:17;100685.78;;;13.24;71.05
48630;BME280;34426;52.180;4.462;2023-03-30T10:36:59;100676.97;;;13.41;71.09
48630;BME280;34426;52.180;4.462;2023-03-30T10:39:29;100681.00;;;13.63;70.63
48630;BME280;34426;52.180;4.462;2023-03-30T10:42:10;100678.81;;;13.55;70.20
48630;BME280;34426;52.180;4.462;2023-03-30T10:45:02;100684.38;;;13.65;70.63
48630;BME280;34426;52.180;4.462;2023-03-30T10:47:46;100675.00;;;13.41;70.31
48630;BME280;34426;52.180;4.462;2023-03-30T10:50:31;100705.66;;;13.38;71.27
48630;BME280;34426;52.180;4.462;2023-03-30T10:53:16;100675.94;;;13.26;71.86
48630;BME280;34426;52.180;4.462;2023-03-30T10:56:07;100688.59;;;13.19;72.24
48630;BME280;34426;52.180;4.462;2023-03-30T11:01:57;100697.25;;;13.32;71.65
48630;BME280;34426;52.180;4.462;2023-03-30T11:07:19;100699.66;;;13.44;72.15
48630;BME280;34426;52.180;4.462;2023-03-30T11:10:05;100700.34;;;13.31;71.87
48630;BME280;34426;52.180;4.462;2023-03-30T11:12:50;100691.31;;;13.39;71.93
48630;BME280;34426;52.180;4.462;2023-03-30T11:15:28;100692.63;;;13.47;71.74
48630;BME280;34426;52.180;4.462;2023-03-30T11:18:12;100702.84;;;13.38;72.07
48630;BME280;34426;52.180;4.462;2023-03-30T11:20:48;100693.38;;;13.23;72.92
48630;BME280;34426;52.180;4.462;2023-03-30T11:23:32;100705.97;;;13.31;72.70
48630;BME280;34426;52.180;4.462;2023-03-30T11:29:21;100699.25;;;13.66;71.43
48630;BME280;34426;52.180;4.462;2023-03-30T11:32:04;100690.06;;;13.89;70.14
48630;BME280;34426;52.180;4.462;2023-03-30T11:34:52;100690.91;;;13.90;70.31
48630;BME280;34426;52.180;4.462;2023-03-30T11:37:25;100691.84;;;13.80;70.17
48630;BME280;34426;52.180;4.462;2023-03-30T11:39:58;100683.38;;;13.85;70.14
48630;BME280;34426;52.180;4.462;2023-03-30T11:42:36;100689.72;;;13.96;70.16
48630;BME280;34426;52.180;4.462;2023-03-30T11:45:35;100689.84;;;14.15;69.83
48630;BME280;34426;52.180;4.462;2023-03-30T11:48:39;100721.13;;;14.08;69.84
48630;BME280;34426;52.180;4.462;2023-03-30T11:51:31;100706.66;;;14.20;69.13
48630;BME280;34426;52.180;4.462;2023-03-30T11:54:27;100709.03;;;14.08;69.64
48630;BME280;34426;52.180;4.462;2023-03-30T11:57:03;100700.00;;;14.11;69.51
48630;BME280;34426;52.180;4.462;2023-03-30T11:59:42;100699.38;;;14.19;69.47
48630;BME280;34426;52.180;4.462;2023-03-30T12:02:29;100711.34;;;14.01;69.78
48630;BME280;34426;52.180;4.462;2023-03-30T12:05:13;100714.34;;;14.09;69.84
48630;BME280;34426;52.180;4.462;2023-03-30T12:07:53;100706.84;;;13.99;69.81
48630;BME280;34426;52.180;4.462;2023-03-30T12:10:46;100710.75;;;14.04;69.69
48630;BME280;34426;52.180;4.462;2023-03-30T12:13:27;100714.78;;;13.92;69.90
48630;BME280;34426;52.180;4.462;2023-03-30T12:15:58;100705.09;;;13.75;70.60
48630;BME280;34426;52.180;4.462;2023-03-30T12:18:34;100718.84;;;13.76;71.18
48630;BME280;34426;52.180;4.462;2023-03-30T12:21:19;100724.50;;;13.71;70.35
48630;BME280;34426;52.180;4.462;2023-03-30T12:23:54;100710.72;;;13.75;70.94
48630;BME280;34426;52.180;4.462;2023-03-30T12:26:28;100711.31;;;13.72;70.44
48630;BME280;34426;52.180;4.462;2023-03-30T12:29:07;100706.53;;;13.72;70.42
48630;BME280;34426;52.180;4.462;2023-03-30T12:34:35;100706.53;;;13.72;71.40
48630;BME280;34426;52.180;4.462;2023-03-30T12:37:12;100720.94;;;13.60;72.22
48630;BME280;34426;52.180;4.462;2023-03-30T12:39:44;100716.31;;;13.41;72.60
48630;BME280;34426;52.180;4.462;2023-03-30T12:42:34;100726.81;;;13.20;74.14
48630;BME280;34426;52.180;4.462;2023-03-30T12:45:18;100707.09;;;13.30;73.85
48630;BME280;34426;52.180;4.462;2023-03-30T12:50:43;100722.00;;;13.70;72.54
48630;BME280;34426;52.180;4.462;2023-03-30T12:56:26;100703.50;;;14.55;69.14
48630;BME280;34426;52.180;4.462;2023-03-30T13:05:39;100710.75;;;14.61;67.55
48630;BME280;34426;52.180;4.462;2023-03-30T13:08:19;100709.97;;;14.56;67.54
48630;BME280;34426;52.180;4.462;2023-03-30T13:11:10;100678.94;;;14.08;69.53
48630;BME280;34426;52.180;4.462;2023-03-30T13:13:58;100701.56;;;13.93;70.05
48630;BME280;34426;52.180;4.462;2023-03-30T13:19:44;100712.50;;;14.57;68.21
48630;BME280;34426;52.180;4.462;2023-03-30T13:22:30;100714.75;;;15.03;66.91
48630;BME280;34426;52.180;4.462;2023-03-30T13:28:29;100728.53;;;14.81;66.44
48630;BME280;34426;52.180;4.462;2023-03-30T13:30:42;100714.81;;;14.98;66.10
48630;BME280;34426;52.180;4.462;2023-03-30T13:33:13;100707.31;;;15.12;66.17
48630;BME280;34426;52.180;4.462;2023-03-30T13:36:00;100719.53;;;16.02;63.26
48630;BME280;34426;52.180;4.462;2023-03-30T13:41:38;100715.16;;;15.58;64.69
48630;BME280;34426;52.180;4.462;2023-03-30T13:47:31;100685.28;;;16.22;61.98
48630;BME280;34426;52.180;4.462;2023-03-30T13:50:03;100682.16;;;16.23;62.39
48630;BME280;34426;52.180;4.462;2023-03-30T13:52:53;100680.28;;;16.79;60.76
48630;BME280;34426;52.180;4.462;2023-03-30T13:55:30;100671.56;;;17.03;59.62
48630;BME280;34426;52.180;4.462;2023-03-30T13:58:08;100677.19;;;17.16;58.82
48630;BME280;34426;52.180;4.462;2023-03-30T14:01:00;100691.44;;;17.11;58.66
48630;BME280;34426;52.180;4.462;2023-03-30T14:06:19;100682.03;;;16.75;59.72
48630;BME280;34426;52.180;4.462;2023-03-30T14:08:48;100678.72;;;16.86;60.16
48630;BME280;34426;52.180;4.462;2023-03-30T14:11:26;100680.31;;;16.46;60.84
48630;BME280;34426;52.180;4.462;2023-03-30T14:14:00;100693.19;;;15.55;64.26
48630;BME280;34426;52.180;4.462;2023-03-30T14:16:36;100704.41;;;15.17;65.36
48630;BME280;34426;52.180;4.462;2023-03-30T14:19:15;100701.22;;;15.05;66.57
48630;BME280;34426;52.180;4.462;2023-03-30T14:24:57;100698.50;;;15.38;65.44
48630;BME280;34426;52.180;4.462;2023-03-30T14:27:55;100684.34;;;15.43;65.13
48630;BME280;34426;52.180;4.462;2023-03-30T14:30:31;100684.00;;;16.01;63.08
48630;BME280;34426;52.180;4.462;2023-03-30T14:33:07;100683.38;;;16.91;59.75